Crooked Creek Research Lab Weather observations

Data are for 10 minute period ending at time listed.
 Day   Time    Ave.   Ave.  Ave.  Vector   Max.   Stn.    Total    Solar   Ave.   Snow 
  of    of     Air    Rel.  Wind   Wind    Wind   Baro.  Precip.   Rad.    Soil   Depth
Year   Day     Temp.  Hum.  Speed  Dir.    Gust   Pres.                    Temp.       
2014   (PST)    F      %     mph   deg.    mph     mb.     in.     W/m2     F      in. 
---------------------------------------------------------------------------------------  
 262    0:00   50.7    58    3.4   160      8.2   701.8    0.00       0    999.0    -0.6
 262    0:10   50.5    57    5.0   135      9.5   701.8    0.00       0    999.0    -0.6
 262    0:20   50.4    56    4.7   150     12.1   701.7    0.00       0    999.0    -0.6
 262    0:30   50.6    56    4.7   150     11.8   701.6    0.00       0    999.0    -0.6
 262    0:40   50.0    57    4.0   174      9.6   701.6    0.00       0    999.0    -0.6
 262    0:50   49.9    57    3.1   177      8.6   701.5    0.00       0    999.0    -0.6
 262    1:00   50.4    56    4.5   182     13.2   701.6    0.00       0    999.0    -0.6
 262    1:10   50.6    57    3.8   171     13.2   701.5    0.00       0    999.0    -0.6
 262    1:20   50.5    58    4.6   167     16.6   701.4    0.00       0    999.0    -0.6
 262    1:30   50.4    58    5.1   146     13.2   701.2    0.00       0    999.0    -0.6
 262    1:40   50.2    59    5.1   153     12.5   701.2    0.00       0    999.0    -0.6
 262    1:50   50.1    58    4.4   151     10.4   701.1    0.00       0    999.0    -0.6
 262    2:00   50.0    58    3.6   146      8.2   701.0    0.00       0    999.0    -0.6
 262    2:10   48.8    60    2.9   191      7.9   701.0    0.00       0    999.0    -0.6
 262    2:20   48.3    60    2.8   220      7.9   700.8    0.00       0    999.0    -0.6
 262    2:30   47.9    58    3.0   192      6.7   700.8    0.00       0    999.0    -0.6
 262    2:40   48.1    55    2.4   211      9.9   700.7    0.00       0    999.0    -0.6
 262    2:50   47.9    58    2.9   148      8.1   700.8    0.00       0    999.0    -0.6
 262    3:00   48.3    60    5.1   155      9.5   700.7    0.00       0    999.0    -0.6
 262    3:10   48.5    56    4.3   172     12.6   700.6    0.00       0    999.0    -0.6
 262    3:20   48.8    52    5.5   137     13.7   700.5    0.00       0    999.0    -0.6
 262    3:30   48.2    54    4.1   161     10.0   700.5    0.00       0    999.0    -0.6
 262    3:40   48.0    53    3.3   177     11.3   700.5    0.00       0    999.0    -0.6
 262    3:50   47.9    51    3.7   159      9.8   700.5    0.00       0    999.0    -0.6
 262    4:00   47.7    51    2.4   180      5.5   700.5    0.00       0    999.0    -0.6
 262    4:10   47.0    51    4.2   137     10.2   700.5    0.00       0    999.0    -0.6
 262    4:20   47.4    49    5.1   135     10.7   700.4    0.00       0    999.0    -0.6
 262    4:30   47.4    49    3.1   198      9.3   700.4    0.00       0    999.0    -0.6
 262    4:40   46.3    51    2.3   178      6.4   700.2    0.00       0    999.0    -0.7
 262    4:50   46.3    49    2.7   180      6.9   700.2    0.00       0    999.0    -0.6
 262    5:00   46.4    46    2.7   209      6.4   700.2    0.00       0    999.0    -0.6
 262    5:10   46.8    44    1.8   199      6.4   700.2    0.00       0    999.0    -0.7
 262    5:20   46.5    44    2.3   197      6.8   700.2    0.00       1    999.0    -0.6
 262    5:30   46.6    41    2.4   203      8.7   700.2    0.00       3    999.0    -0.6
 262    5:40   46.4    40    1.8   175      6.5   700.4    0.00       6    999.0    -0.6
 262    5:50   46.3    39    2.1   170      9.6   700.4    0.00       8    999.0    -0.6
 262    6:00   46.6    40    2.4   169      5.5   700.5    0.00      10    999.0    -0.6
 262    6:10   46.3    42    2.0   142      5.9   700.6    0.00      12    999.0    -0.6
 262    6:20   46.2    42    2.6   146     11.8   700.6    0.00      13    999.0    -0.6
 262    6:30   46.7    41    2.3   210      8.7   700.6    0.00      14    999.0    -0.6
 262    6:40   46.9    41    1.8   157      6.4   700.5    0.00      15    999.0    -0.6
 262    6:50   47.2    41    2.5   153      9.4   700.6    0.00      17    999.0    -0.6
 262    7:00   47.5    39    2.1   170      8.7   700.7    0.00      69    999.0    -0.6
 262    7:10   50.6    35    2.0   228      9.0   700.7    0.00     324    999.0    -0.7
 262    7:20   52.2    32    3.3   223      9.4   700.8    0.00     358    999.0    -0.7
 262    7:30   53.3    30    3.1   230     10.2   700.7    0.00     390    999.0    -0.7
 262    7:40   53.4    29    4.2   237     10.0   700.8    0.00     422    999.0    -0.7
 262    7:50   54.1    25    4.9   219     10.7   700.9    0.00     453    999.0    -0.6
 262    8:00   54.9    21    6.3   239     13.1   700.8    0.00     483    999.0    -0.6
 262    8:10   54.7    19    7.5   239     15.1   700.9    0.00     512    999.0    -0.6
 262    8:20   55.4    19    6.0   224     14.2   701.0    0.00     541    999.0    -0.6
 262    8:30   56.4    18    6.4   238     16.1   701.1    0.00     569    999.0    -0.6
 262    8:40   57.5    18    5.5   241     15.0   700.9    0.00     596    999.0    -0.6
 262    8:50   57.3    19    8.7   241     17.6   701.0    0.00     620    999.0    -0.6
 262    9:00   57.3    20    8.2   243     15.3   701.0    0.00     644    999.0    -0.5
 262    9:10   57.9    20    8.0   242     14.5   701.0    0.00     666    999.0    -0.5
 262    9:20   57.9    19    9.6   246     16.7   701.0    0.00     688    999.0    -0.5
 262    9:30   58.5    20    8.7   247     14.8   700.9    0.00     708    999.0    -0.5
 262    9:40   58.8    20    8.1   245     14.7   701.0    0.00     726    999.0    -0.4
 262    9:50   59.2    20    7.4   239     16.0   701.0    0.00     744    999.0    -0.5
 262   10:00   58.9    20    8.8   235     17.0   701.2    0.00     760    999.0    -0.4
 262   10:10   59.1    20    8.3   238     17.4   701.0    0.00     775    999.0    -0.5
 262   10:20   58.4    20    8.8   238     16.3   701.2    0.00     787    999.0    -0.5
 262   10:30   59.3    23    6.8   210     17.7   701.0    0.00     798    999.0    -0.5
 262   10:40   59.5    25    6.0   246     13.2   701.1    0.00     807    999.0    -0.4
 262   10:50   59.6    26    6.1   267     12.3   701.1    0.00     814    999.0    -0.3
 262   11:00   60.1    24    5.6   157     15.8   701.1    0.00     822    999.0    -0.4
 262   11:10   60.2    25    6.5   214     19.0   701.1    0.00     827    999.0    -0.5
 262   11:20   59.9    24    6.2   219     17.3   701.0    0.00     830    999.0    -0.5
 262   11:30   60.9    23    5.7   165     14.7   701.0    0.00     832    999.0    -0.5
 262   11:40   61.4    23    5.3   153     19.2   700.9    0.00     833    999.0    -0.5
 262   11:50   60.5    24    8.4   251     16.7   701.0    0.00     831    999.0    -0.4
 262   12:00   60.4    24    8.7   240     16.4   700.9    0.00     827    999.0    -0.4
 262   12:10   60.4    24    8.1   268     15.2   701.0    0.00     823    999.0    -0.4
 262   12:20   60.7    23    7.3   276     14.1   700.6    0.00     817    999.0    -0.4
 262   12:30   60.2    23    6.3   230     20.3   700.8    0.00     808    999.0    -0.5
 262   12:40   60.8    22    6.8   250     16.2   700.8    0.00     798    999.0    -0.4
 262   12:50   61.3    22    7.9   251     19.4   700.6    0.00     786    999.0    -0.4
 262   13:00   61.1    21    8.0   239     18.6   700.5    0.00     775    999.0    -0.5
 262   13:10   61.8    21    7.0   237     15.6   700.4    0.00     760    999.0    -0.5
 262   13:20   61.4    22    8.3   250     17.5   700.5    0.00     745    999.0    -0.5
 262   13:30   62.0    21    5.9   232     19.0   700.5    0.00     727    999.0    -0.4
 262   13:40   62.2    21    7.2   245     14.5   700.4    0.00     705    999.0    -0.4
 262   13:50   61.6    21    7.5   232     16.4   700.4    0.00     683    999.0    -0.6
 262   14:00   61.8    20    6.4   228     16.4   700.3    0.00     662    999.0    -0.5
 262   14:10   63.5    19    5.2   210     17.2   700.3    0.00     640    999.0    -0.4
 262   14:20   62.9    19    6.2   244     15.4   700.3    0.00     615    999.0    -0.5
 262   14:30   62.7    22    4.6   193     12.6   700.3    0.00     588    999.0    -0.5
 262   14:40   62.5    21    5.8   156     12.8   700.1    0.00     561    999.0    -0.6
 262   14:50   62.1    24    4.6   156     10.4   700.4    0.00     531    999.0    -0.5
 262   15:00   61.1    25    6.7   153     15.5   700.1    0.00     500    999.0    -0.6
 262   15:10   61.3    25    6.0   145     12.4   700.3    0.00     471    999.0    -0.5
 262   15:20   61.6    25    5.2   142     17.1   700.4    0.00     440    999.0    -0.5
 262   15:30   61.9    24    3.7   166      8.7   700.3    0.00     408    999.0    -0.6
 262   15:40   61.6    25    5.9   145     13.0   700.3    0.00     375    999.0    -0.6
 262   15:50   60.3    26    5.5   163     13.1   700.3    0.00     342    999.0    -0.6
 262   16:00   60.0    27    6.2   148     15.2   700.3    0.00     308    999.0    -0.6
 262   16:10   59.7    28    5.6   148     12.4   700.3    0.00     279    999.0    -0.5
 262   16:20   59.8    29    4.5   167     11.1   700.1    0.00     242    999.0    -0.6
 262   16:30   59.0    30    5.3   146     13.3   700.3    0.00     209    999.0    -0.6
 262   16:40   58.7    30    5.8   158     14.0   700.3    0.00     176    999.0    -0.6
 262   16:50   58.4    31    3.7   173     10.6   700.3    0.00     145    999.0    -0.6
 262   17:00   57.8    31    4.3   160      8.3   700.3    0.00      74    999.0    -0.6
 262   17:10   56.1    33    4.3   158      8.6   700.4    0.00      15    999.0    -0.5
 262   17:20   55.1    34    4.4   132      9.8   700.4    0.00      13    999.0    -0.5
 262   17:30   54.8    34    3.2   114      7.2   700.4    0.00      15    999.0    -0.5
 262   17:40   54.5    35    3.5   138      8.8   700.4    0.00       8    999.0    -0.5
 262   17:50   53.7    36    4.4   154      7.8   700.4    0.00       3    999.0    -0.5
 262   18:00   53.3    36    2.8   184      7.1   700.5    0.00       1    999.0    -0.5
 262   18:10   52.8    37    2.5   164      6.0   700.5    0.00       0    999.0    -0.5
 262   18:20   52.4    38    3.0   173      7.8   700.6    0.00       0    999.0    -0.5
 262   18:30   52.0    38    3.0   190      7.2   700.7    0.00       0    999.0    -0.5
 262   18:40   51.8    39    2.9   193      5.8   700.8    0.00       0    999.0    -0.5
 262   18:50   51.3    40    3.0   200      6.4   700.8    0.00       0    999.0    -0.6
 262   19:00   51.1    40    2.9   209      8.0   700.9    0.00       0    999.0    -0.5
 262   19:10   50.6    42    2.3   205      6.6   701.1    0.00       0    999.0    -0.5
 262   19:20   50.4    43    2.5   199      4.9   701.1    0.00       0    999.0    -0.5
 262   19:30   50.3    44    3.8   212      8.6   701.1    0.00       0    999.0    -0.5
 262   19:40   50.1    44    3.4   180     10.7   700.9    0.00       0    999.0    -0.5
 262   19:50   50.3    45    1.4   145      4.7   701.2    0.00       0    999.0    -0.5
 262   20:00   49.7    47    1.8   218      4.3   701.2    0.00       0    999.0    -0.6
 262   20:10   49.0    48    1.8   198      5.3   701.1    0.00       0    999.0    -0.7
 262   20:20   47.7    50    1.9   177      5.2   701.2    0.00       0    999.0    -0.7
 262   20:30   47.0    51    1.4   200      3.7   701.2    0.00       0    999.0    -0.6
 262   20:40   46.6    51    0.5   169      2.6   701.3    0.00       0    999.0    -0.7
 262   20:50   45.2    53    0.6    59      2.6   701.3    0.00       0    999.0    -0.7
 262   21:00   44.5    54    0.8   148      2.7   701.4    0.00       0    999.0    -0.6
 262   21:10   46.3    55    4.4    37     14.0   701.5    0.00       0    999.0    -0.3
 262   21:20   48.4    54    4.1    37     11.0   701.5    0.00       0    999.0    -0.5
 262   21:30   48.3    56    3.0    34      6.7   701.5    0.00       0    999.0    -0.5
 262   21:40   47.7    58    3.0    34      6.4   701.5    0.00       0    999.0    -0.5
 262   21:50   47.5    58    3.1    34      7.4   701.5    0.00       0    999.0    -0.5
 262   22:00   47.3    59    2.9   357      7.8   701.4    0.00       0    999.0    -0.5
 262   22:10   46.8    60    3.3   327      6.8   701.4    0.00       0    999.0    -0.6
 262   22:20   45.4    62    0.9   310      4.4   701.5    0.00       0    999.0    -0.6
 262   22:30   44.5    64    0.3     7      2.3   701.3    0.00       0    999.0    -0.6
 262   22:40   44.3    64    0.7    66      3.0   701.5    0.00       0    999.0    -0.5
 262   22:50   43.5    64    1.2   125      3.3   701.5    0.00       0    999.0    -0.7
 262   23:00   42.3    66    0.7   183      4.5   701.5    0.00       0    999.0    -0.6
 262   23:10   41.9    67    2.0   212      5.6   701.6    0.00       0    999.0    -0.6
 262   23:20   41.3    69    1.8   218      5.6   701.5    0.00       0    999.0    -0.6
 262   23:30   41.7    68    2.1   177      3.7   701.5    0.00       0    999.0    -0.6
 262   23:40   40.2    69    0.6   151      2.0   701.5    0.00       0    999.0    -0.7
 262   23:50   39.1    72    1.5   204      3.0   701.4    0.00       0    999.0    -0.6

Return to Crooked Creek Research Lab graphs page.


Western Regional Climate Center,wrcc@dri.edu